Terminal Aerodrome Forecast
Issued by NWS Jackson, MS

Home | Current Version | Previous Version | Text Only | Print | Product List | Glossary On
Versions: 1 2 3 4 5 6 7 8 9 10 11 12 13
000
FTUS44 KJAN 310520
TAFMEI
TAF
KMEI 310520Z 3106/0106 VRB04KT P6SM FEW080
     FM310830 00000KT 4SM BR FEW005
     FM311100 VRB03KT 3SM BR SCT005
     FM311330 33006KT P6SM FEW040=

USA.gov is the U.S. government's official web portal to all federal, state and local government web resources and services.